This is the latest recevied weather packets stored in our database for station/object E22ZMG-3. If no packets are shown the sender has not sent any weather packets the latest 10 day(s).
| Time | Temp. | Humidity | Pressure | Rain* | Wind** | Luminosity | Snow |
|---|---|---|---|---|---|---|---|
| 1777908335 | 33.33° C | 41% | 977 hPa | - | - | 0 W/m² | - |
| 1777907711 | 33.33° C | 40% | 977 hPa | - | - | 0 W/m² | - |
| 1777907086 | 34.44° C | 38% | 976 hPa | - | - | 0 W/m² | - |
| 1777906462 | 33.89° C | 38% | 976 hPa | - | - | 0 W/m² | - |
| 1777905837 | 33.89° C | 36% | 976 hPa | - | - | 0 W/m² | - |
| 1777905213 | 34.44° C | 35% | 975 hPa | - | - | 0 W/m² | - |
| 1777904589 | 33.89° C | 36% | 975 hPa | - | - | 0 W/m² | - |
| 1777903964 | 35° C | 35% | 975 hPa | - | - | 0 W/m² | - |
| 1777903340 | 35.56° C | 35% | 975 hPa | - | - | 0 W/m² | - |
| 1777902715 | 35° C | 36% | 975 hPa | - | - | 0 W/m² | - |
| 1777902091 | 36.11° C | 36% | 975 hPa | - | - | 0 W/m² | - |
| 1777901466 | 36.11° C | 37% | 975 hPa | - | - | 0 W/m² | - |
| 1777900842 | 35° C | 39% | 974 hPa | - | - | 0 W/m² | - |
| 1777900217 | 35.56° C | 39% | 974 hPa | - | - | 0 W/m² | - |
| 1777900045 | 36.11° C | 39% | 974 hPa | - | - | 0 W/m² | - |
| 1777899421 | 36.11° C | 38% | 974 hPa | - | - | 0 W/m² | - |
| 1777898797 | 36.67° C | 37% | 974 hPa | - | - | 0 W/m² | - |
| 1777898172 | 36.11° C | 37% | 973 hPa | - | - | 0 W/m² | - |
| 1777897547 | 35.56° C | 37% | 973 hPa | - | - | 0 W/m² | - |
| 1777896922 | 35.56° C | 37% | 973 hPa | - | - | 0 W/m² | - |
| 1777896297 | 35.56° C | 36% | 973 hPa | - | - | 0 W/m² | - |
| 1777895673 | 33.89° C | 38% | 973 hPa | - | - | 0 W/m² | - |
| 1777895048 | 36.67° C | 33% | 973 hPa | - | - | 0 W/m² | - |
| 1777894423 | 36.11° C | 34% | 972 hPa | - | - | 0 W/m² | - |
| 1777893798 | 35.56° C | 35% | 972 hPa | - | - | 0 W/m² | - |
* Rain since midnight (hover to see other rain measurements)
** Current wind speed in m/s (hover to see current wind gust speed)